sensor_id;sensor_type;location;lat;lon;timestamp;pressure;altitude;pressure_sealevel;temperature;humidity
44198;BME280;30157;55.512;37.764;2023-04-05T00:01:23;100183.72;;;4.83;80.98
44198;BME280;30157;55.512;37.764;2023-04-05T00:03:57;100185.47;;;4.86;80.82
44198;BME280;30157;55.512;37.764;2023-04-05T00:06:24;100191.59;;;4.91;80.19
44198;BME280;30157;55.512;37.764;2023-04-05T00:08:58;100175.03;;;4.80;79.86
44198;BME280;30157;55.512;37.764;2023-04-05T00:11:25;100193.94;;;4.82;79.82
44198;BME280;30157;55.512;37.764;2023-04-05T00:13:51;100199.03;;;4.80;80.03
44198;BME280;30157;55.512;37.764;2023-04-05T00:16:18;100130.31;;;4.38;80.23
44198;BME280;30157;55.512;37.764;2023-04-05T00:18:45;100147.56;;;4.44;80.21
44198;BME280;30157;55.512;37.764;2023-04-05T00:21:15;100194.41;;;4.65;80.38
44198;BME280;30157;55.512;37.764;2023-04-05T00:23:41;100062.38;;;3.93;80.20
44198;BME280;30157;55.512;37.764;2023-04-05T00:26:10;100133.66;;;4.35;80.64
44198;BME280;30157;55.512;37.764;2023-04-05T00:28:39;100188.31;;;4.62;80.86
44198;BME280;30157;55.512;37.764;2023-04-05T00:31:05;100182.31;;;4.63;81.05
44198;BME280;30157;55.512;37.764;2023-04-05T00:33:31;100179.69;;;4.60;80.79
44198;BME280;30157;55.512;37.764;2023-04-05T00:35:57;100147.34;;;4.34;80.85
44198;BME280;30157;55.512;37.764;2023-04-05T00:38:22;100164.53;;;4.37;80.74
44198;BME280;30157;55.512;37.764;2023-04-05T00:40:48;100144.56;;;4.27;81.04
44198;BME280;30157;55.512;37.764;2023-04-05T00:43:14;100105.47;;;4.05;80.87
44198;BME280;30157;55.512;37.764;2023-04-05T00:45:40;100088.13;;;3.96;81.11
44198;BME280;30157;55.512;37.764;2023-04-05T00:48:06;100092.50;;;3.99;80.92
44198;BME280;30157;55.512;37.764;2023-04-05T00:50:33;100190.75;;;4.57;80.79
44198;BME280;30157;55.512;37.764;2023-04-05T00:52:59;100192.34;;;4.52;80.53
44198;BME280;30157;55.512;37.764;2023-04-05T00:55:26;100178.41;;;4.44;80.40
44198;BME280;30157;55.512;37.764;2023-04-05T00:57:52;100199.97;;;4.49;80.59
44198;BME280;30157;55.512;37.764;2023-04-05T01:00:20;100152.91;;;4.18;80.11
44198;BME280;30157;55.512;37.764;2023-04-05T01:02:51;100199.91;;;4.46;80.12
44198;BME280;30157;55.512;37.764;2023-04-05T01:08:07;100147.72;;;4.15;80.02
44198;BME280;30157;55.512;37.764;2023-04-05T01:10:38;100057.91;;;3.54;79.80
44198;BME280;30157;55.512;37.764;2023-04-05T01:13:07;100180.31;;;4.17;79.75
44198;BME280;30157;55.512;37.764;2023-04-05T01:15:33;100161.06;;;4.01;79.97
44198;BME280;30157;55.512;37.764;2023-04-05T01:17:59;100204.34;;;4.19;80.51
44198;BME280;30157;55.512;37.764;2023-04-05T01:20:44;100197.44;;;4.18;80.41
44198;BME280;30157;55.512;37.764;2023-04-05T01:31:22;100093.75;;;3.51;80.54
44198;BME280;30157;55.512;37.764;2023-04-05T01:36:26;100200.78;;;4.14;80.89
44198;BME280;30157;55.512;37.764;2023-04-05T01:38:52;100214.47;;;4.13;80.39
44198;BME280;30157;55.512;37.764;2023-04-05T01:41:20;100200.59;;;4.07;80.37
44198;BME280;30157;55.512;37.764;2023-04-05T01:43:46;100162.25;;;3.82;80.31
44198;BME280;30157;55.512;37.764;2023-04-05T01:46:12;100202.03;;;3.98;80.59
44198;BME280;30157;55.512;37.764;2023-04-05T01:48:38;100188.16;;;3.92;80.62
44198;BME280;30157;55.512;37.764;2023-04-05T01:51:04;100197.72;;;3.96;80.62
44198;BME280;30157;55.512;37.764;2023-04-05T01:53:29;100162.09;;;3.78;80.83
44198;BME280;30157;55.512;37.764;2023-04-05T01:56:01;100192.44;;;3.91;80.86
44198;BME280;30157;55.512;37.764;2023-04-05T01:58:28;100195.78;;;3.89;80.80
44198;BME280;30157;55.512;37.764;2023-04-05T02:00:54;100165.16;;;3.64;80.88
44198;BME280;30157;55.512;37.764;2023-04-05T02:03:23;100108.56;;;3.31;80.54
44198;BME280;30157;55.512;37.764;2023-04-05T02:05:49;100222.34;;;3.89;81.20
44198;BME280;30157;55.512;37.764;2023-04-05T02:08:14;100218.94;;;3.90;81.55
44198;BME280;30157;55.512;37.764;2023-04-05T02:10:40;100182.56;;;3.75;81.37
44198;BME280;30157;55.512;37.764;2023-04-05T02:13:07;100205.94;;;3.84;81.38
44198;BME280;30157;55.512;37.764;2023-04-05T02:15:33;100122.19;;;3.28;80.99
44198;BME280;30157;55.512;37.764;2023-04-05T02:17:59;100171.41;;;3.44;80.87
44198;BME280;30157;55.512;37.764;2023-04-05T02:20:30;100222.72;;;3.73;81.26
44198;BME280;30157;55.512;37.764;2023-04-05T02:22:57;100234.66;;;3.70;81.19
44198;BME280;30157;55.512;37.764;2023-04-05T02:25:22;100118.94;;;3.05;81.26
44198;BME280;30157;55.512;37.764;2023-04-05T02:27:48;100222.63;;;3.69;81.54
44198;BME280;30157;55.512;37.764;2023-04-05T02:30:14;100189.44;;;3.47;81.53
44198;BME280;30157;55.512;37.764;2023-04-05T02:32:41;100225.13;;;3.66;81.53
44198;BME280;30157;55.512;37.764;2023-04-05T02:35:12;100232.13;;;3.72;81.60
44198;BME280;30157;55.512;37.764;2023-04-05T02:37:38;100232.19;;;3.75;81.65
44198;BME280;30157;55.512;37.764;2023-04-05T02:40:10;100240.78;;;3.76;81.32
44198;BME280;30157;55.512;37.764;2023-04-05T02:42:38;100236.28;;;3.68;81.16
44198;BME280;30157;55.512;37.764;2023-04-05T02:45:04;100236.31;;;3.70;80.79
44198;BME280;30157;55.512;37.764;2023-04-05T02:47:30;100116.00;;;2.93;80.40
44198;BME280;30157;55.512;37.764;2023-04-05T02:49:58;100242.13;;;3.63;80.91
44198;BME280;30157;55.512;37.764;2023-04-05T02:52:28;100174.00;;;3.16;80.97
44198;BME280;30157;55.512;37.764;2023-04-05T02:54:54;100222.06;;;3.51;81.08
44198;BME280;30157;55.512;37.764;2023-04-05T02:57:25;100242.16;;;3.64;81.18
44198;BME280;30157;55.512;37.764;2023-04-05T03:00:01;100142.00;;;3.05;81.42
44198;BME280;30157;55.512;37.764;2023-04-05T03:02:30;100250.88;;;3.69;81.36
44198;BME280;30157;55.512;37.764;2023-04-05T03:04:56;100253.44;;;3.69;80.98
44198;BME280;30157;55.512;37.764;2023-04-05T03:07:22;100256.88;;;3.70;80.79
44198;BME280;30157;55.512;37.764;2023-04-05T03:09:50;100254.25;;;3.68;80.70
44198;BME280;30157;55.512;37.764;2023-04-05T03:12:17;100245.63;;;3.65;80.72
44198;BME280;30157;55.512;37.764;2023-04-05T03:14:44;100257.03;;;3.75;80.87
44198;BME280;30157;55.512;37.764;2023-04-05T03:17:14;100251.84;;;3.73;81.13
44198;BME280;30157;55.512;37.764;2023-04-05T03:19:43;100264.16;;;3.85;81.06
44198;BME280;30157;55.512;37.764;2023-04-05T03:22:17;100170.44;;;3.40;80.75
44198;BME280;30157;55.512;37.764;2023-04-05T03:24:43;100264.34;;;3.91;80.33
44198;BME280;30157;55.512;37.764;2023-04-05T03:27:11;100255.03;;;3.95;80.50
44198;BME280;30157;55.512;37.764;2023-04-05T03:29:57;100247.97;;;4.18;80.48
44198;BME280;30157;55.512;37.764;2023-04-05T03:32:23;100250.44;;;4.45;79.59
44198;BME280;30157;55.512;37.764;2023-04-05T03:34:57;100242.59;;;4.73;79.74
44198;BME280;30157;55.512;37.764;2023-04-05T03:37:23;100265.81;;;5.11;78.90
44198;BME280;30157;55.512;37.764;2023-04-05T03:39:58;100181.41;;;4.94;77.92
44198;BME280;30157;55.512;37.764;2023-04-05T03:42:24;100246.28;;;5.57;77.50
44198;BME280;30157;55.512;37.764;2023-04-05T03:44:51;100250.25;;;5.81;76.82
44198;BME280;30157;55.512;37.764;2023-04-05T03:47:17;100231.69;;;5.97;76.02
44198;BME280;30157;55.512;37.764;2023-04-05T03:49:43;100277.38;;;6.46;74.34
44198;BME280;30157;55.512;37.764;2023-04-05T03:52:09;100226.69;;;6.46;73.76
44198;BME280;30157;55.512;37.764;2023-04-05T03:54:35;100271.38;;;6.94;73.10
44198;BME280;30157;55.512;37.764;2023-04-05T03:57:01;100261.22;;;7.05;72.77
44198;BME280;30157;55.512;37.764;2023-04-05T03:59:28;100176.34;;;6.70;72.40
44198;BME280;30157;55.512;37.764;2023-04-05T04:01:56;100219.09;;;7.07;71.92
44198;BME280;30157;55.512;37.764;2023-04-05T04:04:23;100272.38;;;7.59;70.96
44198;BME280;30157;55.512;37.764;2023-04-05T04:06:49;100283.06;;;7.82;70.20
44198;BME280;30157;55.512;37.764;2023-04-05T04:09:19;100256.34;;;7.83;69.71
44198;BME280;30157;55.512;37.764;2023-04-05T04:11:47;100292.22;;;8.24;69.53
44198;BME280;30157;55.512;37.764;2023-04-05T04:14:17;100274.50;;;8.55;68.66
44198;BME280;30157;55.512;37.764;2023-04-05T04:17:03;100245.38;;;8.77;67.64
44198;BME280;30157;55.512;37.764;2023-04-05T04:19:58;100290.81;;;9.42;66.72
44198;BME280;30157;55.512;37.764;2023-04-05T04:22:43;100262.34;;;9.48;66.22
44198;BME280;30157;55.512;37.764;2023-04-05T04:25:35;100295.47;;;9.99;64.50
44198;BME280;30157;55.512;37.764;2023-04-05T04:28:21;100219.34;;;9.80;63.79
44198;BME280;30157;55.512;37.764;2023-04-05T04:31:12;100288.63;;;10.15;64.05
44198;BME280;30157;55.512;37.764;2023-04-05T04:33:56;100285.31;;;10.40;63.86
44198;BME280;30157;55.512;37.764;2023-04-05T04:36:41;100242.94;;;10.35;63.16
44198;BME280;30157;55.512;37.764;2023-04-05T04:39:45;100275.88;;;10.59;63.14
44198;BME280;30157;55.512;37.764;2023-04-05T04:42:37;100197.00;;;10.14;62.29
44198;BME280;30157;55.512;37.764;2023-04-05T04:45:31;100121.59;;;9.57;62.47
44198;BME280;30157;55.512;37.764;2023-04-05T04:48:31;100223.81;;;10.19;62.78
44198;BME280;30157;55.512;37.764;2023-04-05T04:51:09;100219.47;;;10.14;62.43
44198;BME280;30157;55.512;37.764;2023-04-05T04:53:35;100281.88;;;10.54;62.40
44198;BME280;30157;55.512;37.764;2023-04-05T04:56:05;100227.28;;;10.23;62.43
44198;BME280;30157;55.512;37.764;2023-04-05T04:58:30;100292.28;;;10.60;62.22
44198;BME280;30157;55.512;37.764;2023-04-05T05:01:07;100289.69;;;10.63;61.99
44198;BME280;30157;55.512;37.764;2023-04-05T05:03:35;100293.16;;;10.57;62.04
44198;BME280;30157;55.512;37.764;2023-04-05T05:06:04;100290.63;;;10.90;61.45
44198;BME280;30157;55.512;37.764;2023-04-05T05:08:31;100295.84;;;11.15;60.74
44198;BME280;30157;55.512;37.764;2023-04-05T05:10:57;100292.38;;;11.22;59.99
44198;BME280;30157;55.512;37.764;2023-04-05T05:13:23;100280.25;;;11.29;59.52
44198;BME280;30157;55.512;37.764;2023-04-05T05:15:48;100303.59;;;11.73;59.06
44198;BME280;30157;55.512;37.764;2023-04-05T05:18:14;100301.84;;;11.99;58.20
44198;BME280;30157;55.512;37.764;2023-04-05T05:20:40;100297.44;;;12.18;57.50
44198;BME280;30157;55.512;37.764;2023-04-05T05:23:07;100243.75;;;11.87;56.73
44198;BME280;30157;55.512;37.764;2023-04-05T05:25:32;100304.31;;;12.37;56.69
44198;BME280;30157;55.512;37.764;2023-04-05T05:27:58;100159.84;;;11.42;56.03
44198;BME280;30157;55.512;37.764;2023-04-05T05:30:25;100307.88;;;12.15;56.10
44198;BME280;30157;55.512;37.764;2023-04-05T05:32:52;100312.22;;;12.03;56.49
44198;BME280;30157;55.512;37.764;2023-04-05T05:35:18;100238.63;;;11.59;56.11
44198;BME280;30157;55.512;37.764;2023-04-05T05:37:44;100305.22;;;12.24;56.08
44198;BME280;30157;55.512;37.764;2023-04-05T05:40:10;100311.94;;;12.67;55.18
44198;BME280;30157;55.512;37.764;2023-04-05T05:42:40;100297.94;;;12.88;53.36
44198;BME280;30157;55.512;37.764;2023-04-05T05:45:06;100315.28;;;12.90;53.49
44198;BME280;30157;55.512;37.764;2023-04-05T05:47:32;100289.34;;;12.72;53.47
44198;BME280;30157;55.512;37.764;2023-04-05T05:49:58;100268.72;;;12.44;53.39
44198;BME280;30157;55.512;37.764;2023-04-05T05:52:24;100322.13;;;13.11;53.32
44198;BME280;30157;55.512;37.764;2023-04-05T05:54:49;100321.72;;;13.63;52.06
44198;BME280;30157;55.512;37.764;2023-04-05T05:57:15;100246.38;;;13.30;51.13
44198;BME280;30157;55.512;37.764;2023-04-05T05:59:40;100314.91;;;13.49;50.92
44198;BME280;30157;55.512;37.764;2023-04-05T06:02:07;100278.50;;;13.37;51.06
44198;BME280;30157;55.512;37.764;2023-04-05T06:04:33;100318.44;;;13.40;51.58
44198;BME280;30157;55.512;37.764;2023-04-05T06:06:59;100291.50;;;13.41;50.79
44198;BME280;30157;55.512;37.764;2023-04-05T06:09:25;100328.88;;;13.33;51.26
44198;BME280;30157;55.512;37.764;2023-04-05T06:11:52;100325.03;;;13.80;50.32
44198;BME280;30157;55.512;37.764;2023-04-05T06:14:18;100291.81;;;13.96;49.88
44198;BME280;30157;55.512;37.764;2023-04-05T06:16:45;100322.38;;;14.59;48.83
44198;BME280;30157;55.512;37.764;2023-04-05T06:19:10;100335.94;;;14.89;47.51
44198;BME280;30157;55.512;37.764;2023-04-05T06:21:36;100328.97;;;14.88;47.42
44198;BME280;30157;55.512;37.764;2023-04-05T06:24:02;100332.66;;;14.73;47.21
44198;BME280;30157;55.512;37.764;2023-04-05T06:26:28;100310.38;;;14.44;47.52
44198;BME280;30157;55.512;37.764;2023-04-05T06:28:55;100313.53;;;14.73;46.79
44198;BME280;30157;55.512;37.764;2023-04-05T06:31:31;100345.22;;;15.10;46.41
44198;BME280;30157;55.512;37.764;2023-04-05T06:33:57;100319.50;;;14.81;46.39
44198;BME280;30157;55.512;37.764;2023-04-05T06:36:23;100337.44;;;15.04;45.66
44198;BME280;30157;55.512;37.764;2023-04-05T06:38:49;100338.22;;;14.44;46.40
44198;BME280;30157;55.512;37.764;2023-04-05T06:41:15;100258.84;;;13.89;46.86
44198;BME280;30157;55.512;37.764;2023-04-05T06:43:44;100338.13;;;14.53;46.92
44198;BME280;30157;55.512;37.764;2023-04-05T06:46:09;100305.09;;;15.11;45.63
44198;BME280;30157;55.512;37.764;2023-04-05T06:48:37;100343.66;;;14.97;45.63
44198;BME280;30157;55.512;37.764;2023-04-05T06:51:04;100348.44;;;15.26;44.79
44198;BME280;30157;55.512;37.764;2023-04-05T06:53:30;100358.81;;;15.87;43.79
44198;BME280;30157;55.512;37.764;2023-04-05T06:55:58;100355.03;;;16.46;43.03
44198;BME280;30157;55.512;37.764;2023-04-05T06:58:24;100253.19;;;16.71;41.46
44198;BME280;30157;55.512;37.764;2023-04-05T07:00:51;100346.78;;;17.43;40.17
44198;BME280;30157;55.512;37.764;2023-04-05T07:03:17;100345.16;;;17.01;40.88
44198;BME280;30157;55.512;37.764;2023-04-05T07:05:56;100266.84;;;16.45;40.94
44198;BME280;30157;55.512;37.764;2023-04-05T07:08:24;100355.44;;;15.77;42.81
44198;BME280;30157;55.512;37.764;2023-04-05T07:10:51;100341.91;;;14.98;44.78
44198;BME280;30157;55.512;37.764;2023-04-05T07:13:18;100353.41;;;14.84;44.70
44198;BME280;30157;55.512;37.764;2023-04-05T07:15:44;100358.16;;;15.18;44.29
44198;BME280;30157;55.512;37.764;2023-04-05T07:18:10;100344.94;;;15.82;43.54
44198;BME280;30157;55.512;37.764;2023-04-05T07:20:37;100282.94;;;15.84;42.43
44198;BME280;30157;55.512;37.764;2023-04-05T07:23:03;100341.56;;;16.21;42.74
44198;BME280;30157;55.512;37.764;2023-04-05T07:25:30;100335.19;;;16.36;41.88
44198;BME280;30157;55.512;37.764;2023-04-05T07:27:56;100263.94;;;16.59;40.65
44198;BME280;30157;55.512;37.764;2023-04-05T07:30:22;100307.22;;;17.51;40.46
44198;BME280;30157;55.512;37.764;2023-04-05T07:32:47;100324.81;;;17.82;39.25
44198;BME280;30157;55.512;37.764;2023-04-05T07:35:15;100348.25;;;18.52;38.26
44198;BME280;30157;55.512;37.764;2023-04-05T07:37:41;100327.41;;;18.76;37.86
44198;BME280;30157;55.512;37.764;2023-04-05T07:40:07;100330.19;;;19.28;37.38
44198;BME280;30157;55.512;37.764;2023-04-05T07:42:35;100318.47;;;19.63;36.30
44198;BME280;30157;55.512;37.764;2023-04-05T07:45:01;100273.47;;;18.92;36.39
44198;BME280;30157;55.512;37.764;2023-04-05T07:47:28;100333.78;;;19.25;36.28
44198;BME280;30157;55.512;37.764;2023-04-05T07:49:56;100330.63;;;19.41;36.15
44198;BME280;30157;55.512;37.764;2023-04-05T07:52:21;100325.63;;;18.76;36.55
44198;BME280;30157;55.512;37.764;2023-04-05T07:54:47;100343.34;;;18.10;38.14
44198;BME280;30157;55.512;37.764;2023-04-05T07:57:17;100259.03;;;17.55;38.26
44198;BME280;30157;55.512;37.764;2023-04-05T07:59:44;100350.41;;;18.39;38.34
44198;BME280;30157;55.512;37.764;2023-04-05T08:02:10;100290.03;;;18.66;37.52
44198;BME280;30157;55.512;37.764;2023-04-05T08:04:35;100282.28;;;18.61;36.93
44198;BME280;30157;55.512;37.764;2023-04-05T08:07:01;100329.53;;;18.64;37.12
44198;BME280;30157;55.512;37.764;2023-04-05T08:09:27;100346.97;;;18.36;38.04
44198;BME280;30157;55.512;37.764;2023-04-05T08:11:53;100302.59;;;17.95;38.14
44198;BME280;30157;55.512;37.764;2023-04-05T08:14:18;100255.66;;;17.83;37.83
44198;BME280;30157;55.512;37.764;2023-04-05T08:16:44;100353.78;;;18.43;37.52
44198;BME280;30157;55.512;37.764;2023-04-05T08:19:10;100292.06;;;18.56;36.80
44198;BME280;30157;55.512;37.764;2023-04-05T08:21:35;100352.44;;;18.89;36.73
44198;BME280;30157;55.512;37.764;2023-04-05T08:24:01;100356.09;;;19.67;35.82
44198;BME280;30157;55.512;37.764;2023-04-05T08:26:27;100320.03;;;20.20;34.77
44198;BME280;30157;55.512;37.764;2023-04-05T08:28:52;100279.50;;;19.73;34.66
44198;BME280;30157;55.512;37.764;2023-04-05T08:31:18;100346.91;;;19.79;34.71
44198;BME280;30157;55.512;37.764;2023-04-05T08:33:45;100365.25;;;19.55;35.44
44198;BME280;30157;55.512;37.764;2023-04-05T08:36:10;100352.06;;;20.09;34.58
44198;BME280;30157;55.512;37.764;2023-04-05T08:38:36;100344.78;;;20.63;33.49
44198;BME280;30157;55.512;37.764;2023-04-05T08:46:13;100346.53;;;20.15;34.27
44198;BME280;30157;55.512;37.764;2023-04-05T08:48:40;100352.19;;;20.29;34.32
44198;BME280;30157;55.512;37.764;2023-04-05T08:51:06;100341.94;;;20.45;33.76
44198;BME280;30157;55.512;37.764;2023-04-05T08:53:34;100326.72;;;21.20;33.39
44198;BME280;30157;55.512;37.764;2023-04-05T08:56:01;100258.06;;;20.33;33.49
44198;BME280;30157;55.512;37.764;2023-04-05T08:58:28;100329.78;;;20.41;34.08
44198;BME280;30157;55.512;37.764;2023-04-05T09:00:56;100313.13;;;20.63;33.99
44198;BME280;30157;55.512;37.764;2023-04-05T09:03:29;100321.75;;;20.68;33.82
44198;BME280;30157;55.512;37.764;2023-04-05T09:05:58;100343.56;;;20.95;33.21
44198;BME280;30157;55.512;37.764;2023-04-05T09:08:24;100327.38;;;21.05;33.05
44198;BME280;30157;55.512;37.764;2023-04-05T09:10:50;100326.16;;;19.70;34.98
44198;BME280;30157;55.512;37.764;2023-04-05T09:13:16;100345.38;;;20.24;34.24
44198;BME280;30157;55.512;37.764;2023-04-05T09:15:49;100261.22;;;19.95;33.72
44198;BME280;30157;55.512;37.764;2023-04-05T09:18:16;100304.41;;;20.39;33.77
44198;BME280;30157;55.512;37.764;2023-04-05T09:20:42;100341.81;;;20.48;33.12
44198;BME280;30157;55.512;37.764;2023-04-05T09:23:07;100278.22;;;20.10;33.44
44198;BME280;30157;55.512;37.764;2023-04-05T09:25:37;100278.41;;;20.52;33.41
44198;BME280;30157;55.512;37.764;2023-04-05T09:28:08;100327.47;;;20.79;32.06
44198;BME280;30157;55.512;37.764;2023-04-05T09:30:37;100342.06;;;20.42;32.71
44198;BME280;30157;55.512;37.764;2023-04-05T09:33:07;100343.66;;;19.97;33.85
44198;BME280;30157;55.512;37.764;2023-04-05T09:35:35;100275.97;;;19.22;33.61
44198;BME280;30157;55.512;37.764;2023-04-05T09:38:02;100348.25;;;19.39;34.16
44198;BME280;30157;55.512;37.764;2023-04-05T09:40:47;100338.13;;;20.05;32.46
44198;BME280;30157;55.512;37.764;2023-04-05T09:43:35;100281.72;;;19.86;32.86
44198;BME280;30157;55.512;37.764;2023-04-05T09:46:00;100257.91;;;19.38;33.52
44198;BME280;30157;55.512;37.764;2023-04-05T09:49:02;100327.28;;;20.38;32.73
44198;BME280;30157;55.512;37.764;2023-04-05T09:51:35;100309.69;;;20.61;32.23
44198;BME280;30157;55.512;37.764;2023-04-05T09:54:07;100329.13;;;20.58;32.86
44198;BME280;30157;55.512;37.764;2023-04-05T09:56:37;100328.97;;;20.87;32.38
44198;BME280;30157;55.512;37.764;2023-04-05T09:59:08;100260.34;;;20.42;32.55
44198;BME280;30157;55.512;37.764;2023-04-05T10:01:36;100340.66;;;20.79;32.12
44198;BME280;30157;55.512;37.764;2023-04-05T10:04:02;100339.31;;;20.91;31.76
44198;BME280;30157;55.512;37.764;2023-04-05T10:06:37;100319.88;;;20.48;32.30
44198;BME280;30157;55.512;37.764;2023-04-05T10:09:04;100273.38;;;20.45;32.50
44198;BME280;30157;55.512;37.764;2023-04-05T10:11:32;100335.34;;;20.57;32.06
44198;BME280;30157;55.512;37.764;2023-04-05T10:14:03;100327.38;;;20.59;32.74
44198;BME280;30157;55.512;37.764;2023-04-05T10:16:32;100332.28;;;20.44;32.90
44198;BME280;30157;55.512;37.764;2023-04-05T10:18:58;100312.53;;;20.09;32.99
44198;BME280;30157;55.512;37.764;2023-04-05T10:21:29;100335.69;;;19.74;33.20
44198;BME280;30157;55.512;37.764;2023-04-05T10:24:39;100332.66;;;19.33;33.69
44198;BME280;30157;55.512;37.764;2023-04-05T10:27:23;100325.50;;;18.81;35.26
44198;BME280;30157;55.512;37.764;2023-04-05T10:30:12;100325.69;;;18.15;35.81
44198;BME280;30157;55.512;37.764;2023-04-05T10:35:34;100327.13;;;17.94;36.74
44198;BME280;30157;55.512;37.764;2023-04-05T10:38:15;100325.47;;;18.53;36.12
44198;BME280;30157;55.512;37.764;2023-04-05T10:40:44;100326.31;;;19.13;35.31
44198;BME280;30157;55.512;37.764;2023-04-05T10:43:15;100308.56;;;19.18;34.44
44198;BME280;30157;55.512;37.764;2023-04-05T10:45:43;100305.28;;;19.11;34.37
44198;BME280;30157;55.512;37.764;2023-04-05T10:50:55;100332.41;;;19.67;34.01
44198;BME280;30157;55.512;37.764;2023-04-05T10:53:22;100324.97;;;19.26;33.73
44198;BME280;30157;55.512;37.764;2023-04-05T10:55:50;100231.38;;;18.36;34.64
44198;BME280;30157;55.512;37.764;2023-04-05T10:58:17;100256.47;;;18.46;34.38
44198;BME280;30157;55.512;37.764;2023-04-05T11:00:45;100320.44;;;19.03;34.35
44198;BME280;30157;55.512;37.764;2023-04-05T11:03:44;100317.88;;;19.02;34.25
44198;BME280;30157;55.512;37.764;2023-04-05T11:08:57;100249.97;;;18.86;33.71
44198;BME280;30157;55.512;37.764;2023-04-05T11:11:23;100253.50;;;18.57;34.10
44198;BME280;30157;55.512;37.764;2023-04-05T11:13:53;100315.47;;;18.94;34.33
44198;BME280;30157;55.512;37.764;2023-04-05T11:16:20;100279.25;;;19.56;33.12
44198;BME280;30157;55.512;37.764;2023-04-05T11:18:50;100255.00;;;20.20;31.87
44198;BME280;30157;55.512;37.764;2023-04-05T11:21:23;100307.31;;;20.55;31.30
44198;BME280;30157;55.512;37.764;2023-04-05T11:24:06;100294.66;;;21.09;30.97
44198;BME280;30157;55.512;37.764;2023-04-05T11:29:14;100282.66;;;21.02;30.92
44198;BME280;30157;55.512;37.764;2023-04-05T11:31:57;100286.28;;;21.20;30.55
44198;BME280;30157;55.512;37.764;2023-04-05T11:34:24;100297.34;;;21.07;30.69
44198;BME280;30157;55.512;37.764;2023-04-05T11:36:49;100286.66;;;21.33;29.99
44198;BME280;30157;55.512;37.764;2023-04-05T11:44:25;100264.56;;;21.56;29.45
44198;BME280;30157;55.512;37.764;2023-04-05T11:46:53;100281.59;;;22.09;29.15
44198;BME280;30157;55.512;37.764;2023-04-05T11:49:21;100259.69;;;22.26;29.01
44198;BME280;30157;55.512;37.764;2023-04-05T11:51:50;100256.47;;;22.57;28.50
44198;BME280;30157;55.512;37.764;2023-04-05T11:56:56;100279.16;;;22.04;28.73
44198;BME280;30157;55.512;37.764;2023-04-05T11:59:28;100205.75;;;21.31;29.38
44198;BME280;30157;55.512;37.764;2023-04-05T12:02:02;100285.91;;;22.49;28.19
44198;BME280;30157;55.512;37.764;2023-04-05T12:04:30;100192.72;;;22.06;28.04
44198;BME280;30157;55.512;37.764;2023-04-05T12:07:16;100249.84;;;22.85;27.03
44198;BME280;30157;55.512;37.764;2023-04-05T12:09:56;100204.88;;;22.85;27.32
44198;BME280;30157;55.512;37.764;2023-04-05T12:12:22;100287.28;;;23.49;26.63
44198;BME280;30157;55.512;37.764;2023-04-05T12:14:48;100291.09;;;23.43;26.66
44198;BME280;30157;55.512;37.764;2023-04-05T12:17:13;100226.47;;;22.20;27.81
44198;BME280;30157;55.512;37.764;2023-04-05T12:19:40;100233.91;;;22.31;27.69
44198;BME280;30157;55.512;37.764;2023-04-05T12:22:08;100263.56;;;23.11;27.18
44198;BME280;30157;55.512;37.764;2023-04-05T12:24:35;100281.25;;;23.10;26.98
44198;BME280;30157;55.512;37.764;2023-04-05T12:27:00;100255.38;;;22.61;27.35
44198;BME280;30157;55.512;37.764;2023-04-05T12:29:26;100284.44;;;22.99;27.15
44198;BME280;30157;55.512;37.764;2023-04-05T12:31:54;100274.78;;;22.62;27.58
44198;BME280;30157;55.512;37.764;2023-04-05T12:34:23;100277.94;;;22.51;27.84
44198;BME280;30157;55.512;37.764;2023-04-05T12:36:52;100276.00;;;22.36;27.54
44198;BME280;30157;55.512;37.764;2023-04-05T12:39:20;100272.41;;;22.92;27.20
44198;BME280;30157;55.512;37.764;2023-04-05T12:41:55;100277.78;;;22.91;27.00
44198;BME280;30157;55.512;37.764;2023-04-05T12:44:29;100246.16;;;22.13;27.84
44198;BME280;30157;55.512;37.764;2023-04-05T12:47:00;100292.28;;;22.45;27.89
44198;BME280;30157;55.512;37.764;2023-04-05T12:49:38;100183.06;;;22.62;26.96
44198;BME280;30157;55.512;37.764;2023-04-05T12:52:04;100200.59;;;22.82;26.64
44198;BME280;30157;55.512;37.764;2023-04-05T12:54:29;100272.84;;;23.02;26.57
44198;BME280;30157;55.512;37.764;2023-04-05T12:56:56;100266.97;;;22.78;27.26
44198;BME280;30157;55.512;37.764;2023-04-05T12:59:22;100202.44;;;22.80;27.07
44198;BME280;30157;55.512;37.764;2023-04-05T13:01:48;100243.44;;;22.72;27.12
44198;BME280;30157;55.512;37.764;2023-04-05T13:04:14;100257.34;;;21.80;27.92
44198;BME280;30157;55.512;37.764;2023-04-05T13:06:39;100275.13;;;21.13;29.22
44198;BME280;30157;55.512;37.764;2023-04-05T13:09:05;100188.97;;;21.33;28.60
44198;BME280;30157;55.512;37.764;2023-04-05T13:11:31;100278.75;;;21.53;29.30
44198;BME280;30157;55.512;37.764;2023-04-05T13:13:56;100186.03;;;20.77;29.21
44198;BME280;30157;55.512;37.764;2023-04-05T13:16:22;100279.56;;;21.33;29.39
44198;BME280;30157;55.512;37.764;2023-04-05T13:18:48;100273.63;;;20.85;30.31
44198;BME280;30157;55.512;37.764;2023-04-05T13:21:13;100275.31;;;19.68;32.02
44198;BME280;30157;55.512;37.764;2023-04-05T13:23:40;100273.19;;;19.54;32.68
44198;BME280;30157;55.512;37.764;2023-04-05T13:26:06;100246.69;;;18.79;33.46
44198;BME280;30157;55.512;37.764;2023-04-05T13:28:32;100279.72;;;18.30;34.81
44198;BME280;30157;55.512;37.764;2023-04-05T13:30:58;100286.66;;;17.68;36.09